Time;durP1;ratioP1;P1;durP2;ratioP2;P2;SDS_P1;SDS_P2;PMS_P1;PMS_P2;Temp;Humidity;BMP_temperature;BMP_pressure;BME280_temperature;BME280_humidity;BME280_pressure;Samples;Min_cycle;Max_cycle;Signal;HPM_P1;HPM_P2
2022/04/25 00:02:42;;;;;;;12.67;11.30;;;8.10;1.00;;;;;;6307115;28;20311;-56
2022/04/25 00:05:45;;;;;;;12.80;10.93;;;8.00;1.00;;;;;;6303320;28;20233;-56
2022/04/25 00:08:47;;;;;;;12.77;11.33;;;8.00;1.00;;;;;;6301079;28;20321;-54
2022/04/25 00:11:51;;;;;;;12.40;11.30;;;7.90;1.00;;;;;;6299551;28;20645;-55
2022/04/25 00:14:54;;;;;;;13.80;11.70;;;8.00;1.00;;;;;;6310110;28;20319;-56
2022/04/25 00:17:57;;;;;;;12.57;11.30;;;7.90;1.00;;;;;;6299582;28;20352;-52
2022/04/25 00:21:00;;;;;;;12.37;10.93;;;7.90;1.00;;;;;;6309359;28;20243;-54
2022/04/25 00:24:03;;;;;;;13.43;12.03;;;7.90;1.00;;;;;;6313666;28;20233;-54
2022/04/25 00:27:07;;;;;;;14.20;12.70;;;7.80;1.00;;;;;;6305998;28;20710;-54
2022/04/25 00:30:11;;;;;;;14.80;13.17;;;7.90;1.00;;;;;;6306509;28;20612;-55
2022/04/25 00:33:14;;;;;;;13.60;11.97;;;7.90;1.00;;;;;;6295558;28;20249;-54
2022/04/25 00:36:16;;;;;;;17.60;12.60;;;8.00;1.00;;;;;;6301017;28;20247;-55
2022/04/25 00:39:19;;;;;;;17.30;13.13;;;7.90;1.00;;;;;;6301397;28;20547;-56
2022/04/25 00:42:24;;;;;;;16.27;13.27;;;7.90;1.00;;;;;;6300789;28;20281;-54
2022/04/25 00:45:27;;;;;;;17.20;13.60;;;7.90;1.00;;;;;;6312456;28;20245;-55
2022/04/25 00:48:30;;;;;;;15.50;12.80;;;7.80;1.00;;;;;;6308006;28;20650;-55
2022/04/25 00:51:32;;;;;;;17.70;13.33;;;7.70;1.00;;;;;;6302669;28;20362;-56
2022/04/25 00:54:36;;;;;;;15.77;13.23;;;7.80;1.00;;;;;;6303607;28;20312;-55
2022/04/25 00:57:40;;;;;;;17.83;14.17;;;7.80;1.00;;;;;;6307555;28;20260;-55
2022/04/25 01:00:44;;;;;;;18.53;13.90;;;7.80;1.00;;;;;;6306531;28;20229;-55
2022/04/25 01:03:48;;;;;;;17.23;14.40;;;7.80;1.00;;;;;;6294218;28;20228;-55
2022/04/25 01:06:51;;;;;;;19.37;14.63;;;7.70;1.00;;;;;;6299409;28;20232;-55
2022/04/25 01:09:55;;;;;;;19.73;14.70;;;7.70;1.00;;;;;;6308631;28;20233;-58
2022/04/25 01:12:59;;;;;;;18.37;14.80;;;7.70;1.00;;;;;;6306599;28;20237;-56
2022/04/25 01:16:02;;;;;;;15.43;14.07;;;7.70;1.00;;;;;;6310953;28;20289;-55
2022/04/25 01:19:05;;;;;;;16.70;15.00;;;7.60;1.00;;;;;;6304876;28;20316;-55
2022/04/25 01:22:10;;;;;;;17.23;14.77;;;7.70;1.00;;;;;;6306930;28;20237;-56
2022/04/25 01:28:35;;;;;;;19.20;15.00;;;7.60;1.00;;;;;;6313398;28;20313;-55
2022/04/25 01:31:38;;;;;;;17.50;13.97;;;7.60;1.00;;;;;;6334756;27;21645;-55
2022/04/25 01:34:41;;;;;;;21.03;15.67;;;7.50;1.00;;;;;;6335013;27;20871;-55
2022/04/25 01:37:44;;;;;;;18.20;15.07;;;7.50;1.00;;;;;;6319549;27;20236;-54
2022/04/25 01:40:48;;;;;;;18.50;15.53;;;7.50;1.00;;;;;;6329415;27;20252;-55
2022/04/25 01:43:51;;;;;;;18.93;15.90;;;7.50;1.00;;;;;;6319851;28;20330;-55
2022/04/25 01:46:54;;;;;;;16.57;14.90;;;7.50;1.00;;;;;;6310718;28;20232;-56
2022/04/25 01:49:57;;;;;;;18.60;16.40;;;7.50;1.00;;;;;;6325999;28;20234;-53
2022/04/25 01:52:59;;;;;;;17.33;14.97;;;7.40;1.00;;;;;;6326699;27;20231;-54
2022/04/25 01:56:04;;;;;;;17.70;15.50;;;7.50;1.00;;;;;;6331734;28;20365;-54
2022/04/25 01:59:06;;;;;;;18.53;15.33;;;7.50;1.00;;;;;;6328776;28;20381;-55
2022/04/25 02:02:10;;;;;;;18.20;14.97;;;7.40;1.00;;;;;;6335678;28;20258;-50
2022/04/25 02:05:13;;;;;;;22.87;15.43;;;7.40;1.00;;;;;;6325619;27;20611;-56
2022/04/25 02:08:17;;;;;;;17.57;15.70;;;7.40;1.00;;;;;;6329263;28;20921;-54
2022/04/25 02:11:22;;;;;;;17.13;15.20;;;7.30;1.00;;;;;;6331676;28;20603;-54
2022/04/25 02:14:25;;;;;;;18.37;16.27;;;7.40;1.00;;;;;;6318464;28;20378;-54
2022/04/25 02:17:28;;;;;;;18.67;15.47;;;7.40;1.00;;;;;;6335898;27;20295;-55
2022/04/25 02:20:31;;;;;;;17.00;15.20;;;7.40;1.00;;;;;;6329246;28;20479;-54
2022/04/25 02:23:34;;;;;;;17.77;15.83;;;7.30;1.00;;;;;;6333179;28;20787;-55
2022/04/25 02:26:38;;;;;;;20.33;16.17;;;7.30;1.00;;;;;;6313156;28;20263;-56
2022/04/25 02:29:41;;;;;;;17.33;15.07;;;7.40;1.00;;;;;;6320347;27;20680;-55
2022/04/25 02:32:43;;;;;;;17.53;15.73;;;7.30;1.00;;;;;;6334652;27;20235;-54
2022/04/25 02:35:47;;;;;;;17.03;15.17;;;7.30;1.00;;;;;;6327157;28;20231;-55
2022/04/25 02:38:49;;;;;;;19.23;16.60;;;7.30;1.00;;;;;;6329587;28;20273;-55
2022/04/25 02:41:53;;;;;;;19.43;15.77;;;7.40;1.00;;;;;;6328140;28;20248;-55
2022/04/25 02:44:56;;;;;;;20.70;16.80;;;7.30;1.00;;;;;;6310526;28;20368;-55
2022/04/25 02:47:59;;;;;;;18.80;16.30;;;7.30;1.00;;;;;;6310851;28;20304;-55
2022/04/25 02:51:03;;;;;;;18.13;16.23;;;7.20;1.00;;;;;;6322195;28;20281;-55
2022/04/25 02:54:05;;;;;;;18.53;15.53;;;7.20;1.00;;;;;;6331249;28;20240;-54
2022/04/25 02:57:10;;;;;;;19.80;16.87;;;7.10;1.00;;;;;;6329490;28;20239;-55
2022/04/25 03:00:14;;;;;;;19.23;17.23;;;7.10;1.00;;;;;;6323042;28;20240;-54
2022/04/25 03:03:20;;;;;;;19.63;17.53;;;7.10;1.00;;;;;;6329279;28;20233;-54
2022/04/25 03:06:23;;;;;;;24.17;17.43;;;7.10;1.00;;;;;;6317058;27;20868;-55
2022/04/25 03:09:27;;;;;;;21.47;16.50;;;7.00;1.00;;;;;;6293114;28;20315;-54
2022/04/25 03:12:38;;;;;;;20.60;16.80;;;7.00;1.00;;;;;;6317469;27;20271;-55
2022/04/25 03:15:40;;;;;;;20.40;17.17;;;7.10;1.00;;;;;;6312460;28;20240;-55
2022/04/25 03:18:43;;;;;;;20.73;16.63;;;7.10;1.00;;;;;;6308262;28;20323;-55
2022/04/25 03:21:46;;;;;;;18.33;16.43;;;7.00;1.00;;;;;;6308527;28;20323;-54
2022/04/25 03:24:49;;;;;;;21.53;17.10;;;6.90;1.00;;;;;;6308622;28;20570;-55
2022/04/25 03:27:53;;;;;;;22.80;17.30;;;7.00;1.00;;;;;;6309659;28;20293;-54
2022/04/25 03:30:56;;;;;;;23.47;17.77;;;6.80;1.00;;;;;;6302161;28;20266;-55
2022/04/25 03:33:59;;;;;;;22.80;17.47;;;6.40;1.00;;;;;;6293953;28;20331;-56
2022/04/25 03:37:02;;;;;;;22.60;17.53;;;6.80;1.00;;;;;;6319140;27;20255;-53
2022/04/25 03:40:06;;;;;;;19.30;16.50;;;6.90;1.00;;;;;;6311657;27;20240;-56
2022/04/25 03:43:10;;;;;;;21.43;17.77;;;6.90;1.00;;;;;;6310891;28;20354;-55
2022/04/25 03:46:13;;;;;;;20.63;16.43;;;6.80;1.00;;;;;;6311445;28;20323;-55
2022/04/25 03:49:15;;;;;;;20.87;17.30;;;6.80;1.00;;;;;;6306316;28;20278;-55
2022/04/25 03:52:18;;;;;;;20.90;16.67;;;6.80;1.00;;;;;;6304505;28;20332;-55
2022/04/25 03:58:43;;;;;;;20.63;17.03;;;6.90;1.00;;;;;;6325654;27;20549;-54
2022/04/25 04:01:45;;;;;;;23.60;17.63;;;7.00;1.00;;;;;;6327655;28;20224;-55
2022/04/25 04:04:49;;;;;;;21.10;16.97;;;6.80;1.00;;;;;;6332564;27;20228;-54
2022/04/25 04:07:53;;;;;;;25.17;18.07;;;6.90;1.00;;;;;;6329380;28;20315;-56
2022/04/25 04:10:56;;;;;;;18.43;16.43;;;7.10;1.00;;;;;;6327980;27;20224;-54
2022/04/25 04:14:00;;;;;;;19.87;17.00;;;6.80;1.00;;;;;;6337034;27;20263;-56
2022/04/25 04:17:04;;;;;;;17.70;15.80;;;6.90;1.00;;;;;;6322947;27;20247;-54
2022/04/25 04:20:08;;;;;;;23.07;17.67;;;6.90;1.00;;;;;;6332486;27;20322;-57
2022/04/25 04:23:11;;;;;;;18.07;16.03;;;6.90;1.00;;;;;;6329178;28;20721;-54
2022/04/25 04:26:13;;;;;;;22.37;16.10;;;6.90;1.00;;;;;;6328675;27;20277;-56
2022/04/25 04:29:17;;;;;;;19.10;16.10;;;7.00;1.00;;;;;;6335433;27;20314;-56
2022/04/25 04:32:20;;;;;;;18.40;16.40;;;7.20;1.00;;;;;;6334662;27;20308;-55
2022/04/25 04:38:44;;;;;;;19.90;16.53;;;7.00;1.00;;;;;;6306647;28;20247;-54
2022/04/25 04:41:47;;;;;;;25.70;16.73;;;7.10;1.00;;;;;;6304325;28;20717;-56
2022/04/25 04:44:51;;;;;;;21.17;16.83;;;7.00;1.00;;;;;;6309141;28;20225;-55
2022/04/25 04:47:54;;;;;;;21.87;16.93;;;7.00;1.00;;;;;;6306175;28;20250;-55
2022/04/25 04:50:58;;;;;;;19.13;17.03;;;7.00;1.00;;;;;;6307042;28;20740;-55
2022/04/25 04:54:01;;;;;;;23.33;17.53;;;6.80;1.00;;;;;;6308936;28;20256;-55
2022/04/25 04:57:04;;;;;;;19.23;15.63;;;7.00;1.00;;;;;;6306597;28;20332;-54
2022/04/25 05:00:10;;;;;;;22.37;16.77;;;7.00;1.00;;;;;;6307253;28;20247;-57
2022/04/25 05:03:13;;;;;;;26.10;17.93;;;7.10;1.00;;;;;;6302895;28;20293;-56
2022/04/25 05:06:17;;;;;;;22.83;18.20;;;7.10;1.00;;;;;;6307516;27;20244;-52
2022/04/25 05:09:19;;;;;;;20.13;15.83;;;7.10;1.00;;;;;;6297930;28;20735;-54
2022/04/25 05:12:22;;;;;;;20.87;17.67;;;7.20;1.00;;;;;;6309753;28;20306;-54
2022/04/25 05:15:26;;;;;;;23.93;17.10;;;7.20;1.00;;;;;;6330910;27;20319;-54
2022/04/25 05:18:32;;;;;;;21.80;16.37;;;7.20;1.00;;;;;;6330511;27;20224;-56
2022/04/25 05:21:35;;;;;;;18.93;16.53;;;7.30;1.00;;;;;;6330022;27;20756;-53
2022/04/25 05:24:37;;;;;;;23.50;16.40;;;7.30;1.00;;;;;;6328445;28;20224;-54
2022/04/25 05:27:40;;;;;;;18.50;14.87;;;7.30;1.00;;;;;;6330474;28;20370;-55
2022/04/25 05:30:46;;;;;;;17.23;14.87;;;7.40;1.00;;;;;;6330033;28;20250;-55
2022/04/25 05:33:49;;;;;;;15.90;14.10;;;7.50;1.00;;;;;;6333410;27;20311;-55
2022/04/25 05:36:51;;;;;;;17.00;14.93;;;7.70;1.00;;;;;;6331643;28;20626;-55
2022/04/25 05:39:54;;;;;;;21.90;15.80;;;7.70;1.00;;;;;;6328933;27;20750;-55
2022/04/25 05:42:58;;;;;;;17.77;15.77;;;7.70;1.00;;;;;;6333437;28;20282;-56
2022/04/25 05:46:02;;;;;;;16.27;13.93;;;7.70;1.00;;;;;;6335772;28;20259;-54
2022/04/25 05:52:26;;;;;;;15.53;12.77;;;7.90;1.00;;;;;;6313863;28;20228;-56
2022/04/25 05:55:29;;;;;;;14.13;12.47;;;8.00;1.00;;;;;;6303124;28;20298;-56
2022/04/25 05:58:32;;;;;;;13.50;12.13;;;8.10;1.00;;;;;;6305273;28;20250;-54
2022/04/25 06:01:36;;;;;;;14.37;12.83;;;8.10;1.00;;;;;;6332007;27;20312;-54
2022/04/25 06:04:39;;;;;;;14.60;11.90;;;8.10;1.00;;;;;;6333253;27;20338;-55
2022/04/25 06:07:43;;;;;;;13.43;12.17;;;8.20;1.00;;;;;;6330548;27;20249;-56
2022/04/25 06:10:45;;;;;;;13.97;11.63;;;8.30;1.00;;;;;;6326596;27;20331;-56
2022/04/25 06:13:50;;;;;;;13.63;12.10;;;8.30;1.00;;;;;;6330765;27;20377;-55
2022/04/25 06:16:54;;;;;;;12.50;10.83;;;8.40;1.00;;;;;;6333324;28;20285;-57
2022/04/25 06:19:57;;;;;;;13.23;10.80;;;8.50;1.00;;;;;;6325554;28;20811;-54
2022/04/25 06:23:02;;;;;;;13.53;11.23;;;8.50;1.00;;;;;;6332719;27;20760;-54
2022/04/25 06:26:05;;;;;;;12.47;11.20;;;8.60;1.00;;;;;;6330356;27;20388;-54
2022/04/25 06:29:07;;;;;;;10.67;9.57;;;8.70;1.00;;;;;;6327291;27;20365;-56
2022/04/25 06:32:12;;;;;;;10.80;9.70;;;8.80;1.00;;;;;;6326345;28;20667;-56
2022/04/25 06:35:14;;;;;;;11.97;10.87;;;8.90;1.00;;;;;;6324135;27;20832;-54
2022/04/25 06:38:18;;;;;;;12.30;11.00;;;8.90;1.00;;;;;;6330332;28;20299;-55
2022/04/25 06:41:22;;;;;;;11.60;10.03;;;9.00;1.00;;;;;;6313132;28;20247;-57
2022/04/25 06:44:24;;;;;;;12.17;10.73;;;9.00;1.00;;;;;;6329643;28;20280;-54
2022/04/25 06:47:28;;;;;;;10.33;9.43;;;9.10;1.00;;;;;;6333113;27;20612;-55
2022/04/25 06:50:31;;;;;;;11.37;10.27;;;9.20;1.00;;;;;;6325546;27;20724;-54
2022/04/25 06:53:34;;;;;;;10.63;9.63;;;9.20;1.00;;;;;;6326479;28;20232;-54
2022/04/25 06:56:37;;;;;;;11.80;9.97;;;9.30;1.00;;;;;;6325891;28;20236;-57
2022/04/25 06:59:39;;;;;;;10.00;9.00;;;9.40;1.00;;;;;;6328006;28;20224;-60
2022/04/25 07:02:44;;;;;;;10.23;9.33;;;9.40;1.00;;;;;;6331209;28;20252;-54
2022/04/25 07:05:48;;;;;;;12.03;9.43;;;9.50;1.00;;;;;;6330590;28;20239;-55
2022/04/25 07:08:52;;;;;;;9.70;8.90;;;9.50;1.00;;;;;;6329744;28;20639;-55
2022/04/25 07:11:54;;;;;;;10.30;9.37;;;9.50;1.00;;;;;;6327287;28;20246;-55
2022/04/25 07:14:57;;;;;;;10.93;9.80;;;9.50;1.00;;;;;;6332133;28;20694;-55
2022/04/25 07:18:01;;;;;;;9.70;8.90;;;9.60;1.00;;;;;;6328241;28;20223;-55
2022/04/25 07:28:48;;;;;;;9.47;8.63;;;9.60;1.00;;;;;;6333192;27;20866;-54
2022/04/25 07:31:15;;;;;;;10.20;9.23;;;9.50;1.00;;;;;;6306860;28;20257;-55
2022/04/25 07:34:20;;;;;;;9.87;8.77;;;9.40;1.00;;;;;;6307380;28;20241;-55
2022/04/25 07:37:23;;;;;;;10.87;9.77;;;9.30;1.00;;;;;;6305347;28;20252;-55
2022/04/25 07:40:26;;;;;;;10.20;9.23;;;9.30;1.00;;;;;;6297648;28;20431;-55
2022/04/25 07:43:29;;;;;;;8.87;8.07;;;9.40;1.00;;;;;;6329374;27;20314;-55
2022/04/25 07:46:32;;;;;;;9.67;8.80;;;9.40;1.00;;;;;;6332178;27;20618;-56
2022/04/25 07:49:36;;;;;;;10.80;8.60;;;9.50;1.00;;;;;;6312489;27;20228;-55
2022/04/25 07:52:39;;;;;;;9.53;8.67;;;9.50;1.00;;;;;;6304993;28;20319;-57
2022/04/25 07:55:42;;;;;;;9.40;8.60;;;9.60;1.00;;;;;;6307080;28;20281;-56
2022/04/25 07:58:45;;;;;;;9.00;8.10;;;9.70;1.00;;;;;;6307240;28;20757;-55
2022/04/25 08:01:48;;;;;;;12.43;8.37;;;9.80;1.00;;;;;;6310288;28;20819;-55
2022/04/25 08:04:52;;;;;;;12.40;10.03;;;9.80;1.00;;;;;;6325506;27;20257;-50
2022/04/25 08:08:01;;;;;;;10.80;8.73;;;9.90;1.00;;;;;;6309833;28;20233;-54
2022/04/25 08:11:06;;;;;;;8.87;8.13;;;9.90;1.00;;;;;;6306684;28;20284;-54
2022/04/25 08:20:57;;;;;;;8.17;7.53;;;10.10;1.00;;;;;;6320447;28;20239;-54
2022/04/25 08:24:01;;;;;;;9.00;8.17;;;10.10;1.00;;;;;;6335432;27;20240;-54
2022/04/25 08:27:05;;;;;;;8.53;7.73;;;10.30;1.00;;;;;;6331774;27;20704;-55
2022/04/25 08:30:09;;;;;;;12.53;7.70;;;10.30;1.00;;;;;;6327173;28;20293;-54
2022/04/25 08:33:12;;;;;;;7.80;7.10;;;10.40;1.00;;;;;;6331807;28;20353;-52
2022/04/25 08:36:18;;;;;;;8.63;7.20;;;10.60;1.00;;;;;;6333359;27;20333;-54
2022/04/25 08:39:22;;;;;;;7.37;6.80;;;10.80;1.00;;;;;;6325379;28;20386;-54
2022/04/25 08:42:25;;;;;;;7.27;6.77;;;10.80;1.00;;;;;;6340364;27;20726;-54
2022/04/25 08:45:46;;;;;;;7.37;6.80;;;10.90;1.00;;;;;;6337144;27;20242;-56
2022/04/25 08:48:51;;;;;;;7.77;7.20;;;11.00;1.00;;;;;;6333846;27;20236;-54
2022/04/25 08:51:59;;;;;;;7.67;6.97;;;11.10;1.00;;;;;;6338188;27;20231;-56
2022/04/25 08:55:03;;;;;;;7.47;6.80;;;11.20;1.00;;;;;;6328781;27;20304;-55
2022/04/25 08:58:07;;;;;;;7.90;7.20;;;11.20;1.00;;;;;;6331210;28;20243;-54
2022/04/25 09:01:10;;;;;;;8.03;7.33;;;11.40;1.00;;;;;;6339645;27;20247;-54
2022/04/25 09:04:14;;;;;;;7.40;6.73;;;11.40;1.00;;;;;;6334173;27;20527;-54
2022/04/25 09:07:18;;;;;;;7.53;6.83;;;11.40;1.00;;;;;;6334314;27;20247;-57
2022/04/25 09:10:22;;;;;;;13.00;7.57;;;11.30;1.00;;;;;;6326526;28;20232;-54
2022/04/25 09:13:24;;;;;;;8.83;6.90;;;11.20;1.00;;;;;;6336763;27;20236;-54
2022/04/25 09:16:27;;;;;;;8.13;6.50;;;11.20;1.00;;;;;;6333894;27;20324;-53
2022/04/25 09:19:31;;;;;;;8.63;7.80;;;11.20;1.00;;;;;;6328949;28;20288;-56
2022/04/25 09:22:39;;;;;;;10.23;7.20;;;11.10;1.00;;;;;;6328651;27;20240;-54
2022/04/25 09:25:42;;;;;;;8.07;6.90;;;11.30;1.00;;;;;;6332320;27;20281;-53
2022/04/25 09:28:47;;;;;;;8.80;7.00;;;11.40;1.00;;;;;;6331052;27;20232;-54
2022/04/25 09:31:50;;;;;;;12.07;6.37;;;11.60;1.00;;;;;;6334125;28;20286;-54
2022/04/25 09:35:02;;;;;;;7.67;6.87;;;11.90;1.00;;;;;;6318772;27;20231;-54
2022/04/25 09:38:08;;;;;;;6.67;6.17;;;11.90;99.90;;;;;;6326686;28;20220;-54
2022/04/25 09:41:12;;;;;;;6.47;5.97;;;12.00;99.90;;;;;;6330653;27;20257;-56
2022/04/25 09:44:15;;;;;;;5.73;5.33;;;12.10;99.90;;;;;;6335426;27;20326;-54
2022/04/25 09:47:26;;;;;;;6.50;6.03;;;12.30;99.90;;;;;;6326094;27;20293;-54
2022/04/25 09:50:29;;;;;;;5.97;5.47;;;12.40;99.90;;;;;;6327251;27;20309;-54
2022/04/25 09:53:52;;;;;;;6.37;5.73;;;12.60;99.90;;;;;;6327995;28;20240;-53
2022/04/25 09:56:55;;;;;;;6.00;5.60;;;12.60;99.90;;;;;;6326568;27;20372;-55
2022/04/25 09:59:57;;;;;;;5.77;5.07;;;12.60;99.90;;;;;;6331487;27;20252;-54
2022/04/25 10:03:06;;;;;;;11.13;5.80;;;12.70;99.90;;;;;;6332604;27;20272;-54
2022/04/25 10:06:09;;;;;;;8.20;5.90;;;12.50;99.90;;;;;;6330235;27;20279;-54
2022/04/25 10:09:13;;;;;;;6.93;6.33;;;12.30;99.90;;;;;;6328875;28;20373;-55
2022/04/25 10:12:18;;;;;;;6.20;5.63;;;12.20;99.90;;;;;;6327905;28;20686;-54
2022/04/25 10:15:23;;;;;;;6.07;5.60;;;12.40;99.90;;;;;;6328343;28;20344;-53
2022/04/25 10:18:28;;;;;;;5.60;5.20;;;12.60;99.90;;;;;;6304173;28;20452;-54
2022/04/25 10:21:36;;;;;;;6.47;5.30;;;12.70;99.90;;;;;;6323865;27;20442;-54
2022/04/25 10:24:40;;;;;;;7.57;5.33;;;12.80;99.90;;;;;;6300433;28;20233;-54
2022/04/25 10:27:45;;;;;;;5.37;4.97;;;12.90;99.90;;;;;;6304483;28;20245;-54
2022/04/25 10:30:49;;;;;;;5.10;4.60;;;13.00;99.90;;;;;;6296538;28;20229;-54
2022/04/25 10:33:53;;;;;;;5.30;4.80;;;13.10;99.90;;;;;;6306427;28;20229;-54
2022/04/25 10:36:56;;;;;;;5.10;4.83;;;13.00;99.90;;;;;;6302622;28;20275;-55
2022/04/25 10:40:01;;;;;;;6.83;5.07;;;12.90;99.90;;;;;;6296095;28;20499;-55
2022/04/25 10:47:14;;;;;;;5.50;5.17;;;12.90;99.90;;;;;;6295586;28;20793;-55
2022/04/25 10:50:17;;;;;;;5.97;5.43;;;12.90;99.90;;;;;;6326958;28;20566;-53
2022/04/25 10:53:59;;;;;;;5.83;5.07;;;13.10;99.90;;;;;;6329769;27;20232;-54
2022/04/25 10:57:14;;;;;;;5.67;5.17;;;13.20;99.90;;;;;;6314890;28;20255;-55
2022/04/25 11:00:46;;;;;;;6.43;5.20;;;13.40;99.90;;;;;;6324395;28;20342;-54
2022/04/25 11:04:04;;;;;;;5.37;4.87;;;13.50;99.90;;;;;;6328249;28;20735;-54
2022/04/25 11:07:25;;;;;;;9.10;5.10;;;13.70;99.90;;;;;;6326148;27;20237;-53
2022/04/25 11:10:44;;;;;;;5.23;4.90;;;13.80;99.90;;;;;;6316336;28;20327;-53
2022/04/25 11:14:18;;;;;;;5.50;5.00;;;13.70;99.90;;;;;;6328740;28;20824;-55
2022/04/25 11:17:21;;;;;;;5.40;5.00;;;13.80;99.90;;;;;;6329093;27;20644;-54
2022/04/25 11:20:55;;;;;;;5.57;4.90;;;13.90;99.90;;;;;;6326030;28;20287;-56
2022/04/25 11:23:59;;;;;;;6.73;4.83;;;14.00;99.90;;;;;;6312011;27;20256;-53
2022/04/25 11:27:03;;;;;;;6.10;4.83;;;14.20;99.90;;;;;;6306657;28;20256;-55
2022/04/25 11:30:17;;;;;;;5.07;4.67;;;14.20;99.90;;;;;;6333505;28;20822;-55
2022/04/25 11:33:19;;;;;;;4.83;4.57;;;14.30;99.90;;;;;;6337975;27;20236;-54
2022/04/25 11:36:23;;;;;;;4.77;4.47;;;14.30;99.90;;;;;;6332513;28;20236;-55
2022/04/25 11:42:54;;;;;;;5.00;4.80;;;14.30;99.90;;;;;;6307464;28;20649;-54
2022/04/25 11:46:01;;;;;;;5.23;4.93;;;14.40;99.90;;;;;;6308797;28;20366;-54
2022/04/25 11:49:06;;;;;;;6.07;5.57;;;14.50;99.90;;;;;;6306412;28;20232;-54
2022/04/25 11:52:15;;;;;;;4.97;4.57;;;14.50;99.90;;;;;;6313290;28;20243;-54
2022/04/25 11:55:19;;;;;;;5.40;5.10;;;14.70;99.90;;;;;;6309327;27;20733;-55
2022/04/25 11:58:29;;;;;;;5.00;4.67;;;14.80;99.90;;;;;;6307337;28;20245;-54
2022/04/25 12:01:35;;;;;;;5.17;4.80;;;15.10;99.90;;;;;;6310539;28;20263;-53
2022/04/25 12:04:39;;;;;;;5.47;5.17;;;15.30;99.90;;;;;;6330417;27;20228;-54
2022/04/25 12:18:17;;;;;;;4.70;4.23;;;15.40;99.90;;;;;;6332920;28;20236;-54
2022/04/25 12:21:21;;;;;;;5.20;4.70;;;15.70;99.90;;;;;;6311905;28;20594;-53
2022/04/25 12:24:24;;;;;;;5.57;4.93;;;15.90;99.90;;;;;;6313105;27;20662;-55
2022/04/25 12:27:27;;;;;;;4.80;4.60;;;16.10;99.90;;;;;;6306096;28;20244;-54
2022/04/25 12:30:50;;;;;;;5.90;5.50;;;16.20;99.90;;;;;;6301046;28;20240;-55
2022/04/25 12:33:54;;;;;;;4.80;4.57;;;16.30;99.90;;;;;;6301592;28;20834;-55
2022/04/25 12:36:59;;;;;;;5.90;5.40;;;16.60;99.90;;;;;;6305972;28;20232;-54
2022/04/25 12:40:02;;;;;;;5.70;5.40;;;16.60;99.90;;;;;;6294802;27;20636;-53
2022/04/25 12:43:05;;;;;;;5.70;5.27;;;16.60;99.90;;;;;;6333375;27;20250;-54
2022/04/25 12:46:08;;;;;;;6.03;5.53;;;16.40;99.90;;;;;;6325083;27;20244;-55
2022/04/25 12:49:14;;;;;;;6.20;5.70;;;16.30;99.90;;;;;;6314324;28;20237;-55
2022/04/25 12:52:20;;;;;;;5.20;4.90;;;16.10;99.90;;;;;;6309325;28;20280;-55
2022/04/25 12:55:44;;;;;;;5.83;5.43;;;16.10;99.90;;;;;;6321634;27;20743;-54
2022/04/25 12:58:48;;;;;;;6.00;5.60;;;16.20;99.90;;;;;;6332267;27;20377;-54
2022/04/25 13:02:01;;;;;;;4.90;4.73;;;16.40;99.90;;;;;;6335977;27;20290;-54
2022/04/25 13:05:07;;;;;;;7.13;5.07;;;16.40;99.90;;;;;;6332947;27;20377;-55
2022/04/25 13:08:10;;;;;;;5.20;4.70;;;16.20;99.90;;;;;;6332665;27;20263;-54
2022/04/25 13:11:14;;;;;;;5.30;5.00;;;16.20;99.90;;;;;;6327831;27;20650;-54
2022/04/25 13:14:16;;;;;;;6.13;5.73;;;16.30;99.90;;;;;;6329777;27;20610;-55
2022/04/25 13:17:19;;;;;;;5.43;5.13;;;16.20;99.90;;;;;;6333235;27;20651;-54
2022/04/25 13:20:28;;;;;;;5.37;5.03;;;16.30;99.90;;;;;;6330879;27;20481;-55
2022/04/25 13:23:32;;;;;;;5.57;5.17;;;16.60;99.90;;;;;;6328959;27;20231;-55
2022/04/25 13:26:50;;;;;;;5.33;5.03;;;16.70;99.90;;;;;;6335496;27;20481;-54
2022/04/25 13:29:54;;;;;;;5.47;5.07;;;16.70;99.90;;;;;;6326065;27;20320;-54
2022/04/25 13:32:58;;;;;;;5.57;4.77;;;16.60;99.90;;;;;;6333876;28;20334;-55
2022/04/25 13:36:06;;;;;;;6.13;5.37;;;16.80;99.90;;;;;;6331072;27;20671;-55
2022/04/25 13:39:08;;;;;;;5.40;4.93;;;16.90;99.90;;;;;;6328031;27;20243;-53
2022/04/25 13:42:11;;;;;;;5.83;5.30;;;17.00;99.90;;;;;;6330038;28;20320;-54
2022/04/25 13:45:14;;;;;;;5.70;4.97;;;17.00;99.90;;;;;;6307577;28;20316;-56
2022/04/25 13:48:17;;;;;;;5.17;4.70;;;16.90;99.90;;;;;;6310257;28;20252;-55
2022/04/25 13:51:21;;;;;;;4.90;4.60;;;17.10;99.90;;;;;;6296458;28;20235;-54
2022/04/25 13:54:23;;;;;;;4.97;4.77;;;17.30;99.90;;;;;;6296030;28;20267;-55
2022/04/25 13:57:26;;;;;;;5.70;5.33;;;17.30;99.90;;;;;;6304316;28;20252;-53
2022/04/25 14:00:29;;;;;;;5.40;5.10;;;17.50;99.90;;;;;;6306869;28;20773;-54
2022/04/25 14:03:35;;;;;;;5.93;5.40;;;17.40;99.90;;;;;;6305093;28;20246;-54
2022/04/25 14:06:40;;;;;;;5.07;4.73;;;17.20;99.90;;;;;;6307101;28;20237;-54
2022/04/25 14:09:43;;;;;;;5.73;5.37;;;16.90;99.90;;;;;;6301455;28;20600;-54
2022/04/25 14:12:46;;;;;;;5.40;5.00;;;16.60;99.90;;;;;;6314672;27;20910;-54
2022/04/25 14:15:49;;;;;;;6.20;4.87;;;16.50;99.90;;;;;;6303183;28;20236;-54
2022/04/25 14:18:53;;;;;;;5.87;5.27;;;16.60;99.90;;;;;;6303808;28;20260;-54
2022/04/25 14:22:07;;;;;;;5.37;5.03;;;16.70;99.90;;;;;;6306435;28;20327;-55
2022/04/25 14:25:10;;;;;;;4.87;4.57;;;16.80;99.90;;;;;;6301732;28;20306;-54
2022/04/25 14:28:17;;;;;;;5.90;5.40;;;16.80;99.90;;;;;;6301112;28;20374;-55
2022/04/25 14:31:20;;;;;;;5.70;5.20;;;16.80;99.90;;;;;;6306276;28;20301;-53
2022/04/25 14:34:23;;;;;;;5.10;4.77;;;16.90;99.90;;;;;;6301347;28;20593;-55
2022/04/25 14:37:27;;;;;;;5.97;4.70;;;16.70;99.90;;;;;;6305719;28;20328;-55
2022/04/25 14:40:36;;;;;;;5.37;4.73;;;16.80;99.90;;;;;;6296799;28;20289;-54
2022/04/25 14:43:38;;;;;;;5.13;4.63;;;16.70;99.90;;;;;;6327366;28;20401;-55
2022/04/25 14:46:41;;;;;;;4.53;4.33;;;16.70;99.90;;;;;;6331489;28;20600;-55
2022/04/25 14:56:27;;;;;;;4.70;4.40;;;16.50;99.90;;;;;;6311106;28;20375;-54
2022/04/25 14:59:31;;;;;;;4.60;4.20;;;16.60;99.90;;;;;;6336381;27;20372;-54
2022/04/25 15:02:35;;;;;;;5.40;4.53;;;16.60;99.90;;;;;;6344305;27;20882;-54
2022/04/25 15:05:39;;;;;;;5.03;4.47;;;16.60;99.90;;;;;;6339940;27;20234;-55
2022/04/25 15:08:43;;;;;;;4.33;4.13;;;16.50;99.90;;;;;;6336864;27;20238;-55
2022/04/25 15:11:46;;;;;;;4.50;4.20;;;16.50;99.90;;;;;;6322945;27;20275;-55
2022/04/25 15:14:49;;;;;;;4.60;4.30;;;16.60;99.90;;;;;;6333578;27;20268;-54
2022/04/25 15:17:51;;;;;;;4.93;4.43;;;16.60;99.90;;;;;;6337101;27;20287;-54
2022/04/25 15:20:54;;;;;;;4.43;4.23;;;16.60;99.90;;;;;;6340086;27;20231;-54
2022/04/25 15:24:08;;;;;;;4.60;4.20;;;16.50;99.90;;;;;;6337247;27;20319;-54
2022/04/25 15:27:10;;;;;;;4.20;4.00;;;16.50;99.90;;;;;;6338424;27;20400;-54
2022/04/25 15:30:15;;;;;;;4.83;4.47;;;16.60;99.90;;;;;;6334086;27;20791;-57
2022/04/25 15:33:18;;;;;;;5.33;4.67;;;16.50;99.90;;;;;;6341071;27;20318;-56
2022/04/25 15:36:21;;;;;;;4.77;3.97;;;16.40;99.90;;;;;;6340409;27;20865;-55
2022/04/25 15:39:25;;;;;;;3.40;3.30;;;16.40;99.90;;;;;;6333736;27;20244;-55
2022/04/25 15:42:28;;;;;;;4.23;3.97;;;16.70;99.90;;;;;;6337656;27;20704;-55
2022/04/25 15:45:31;;;;;;;4.73;4.43;;;16.80;99.90;;;;;;6339898;27;20377;-54
2022/04/25 15:48:34;;;;;;;4.00;3.80;;;16.60;99.90;;;;;;6334615;27;20727;-55
2022/04/25 15:51:36;;;;;;;5.00;4.67;;;16.50;99.90;;;;;;6336541;27;20312;-54
2022/04/25 15:58:01;;;;;;;3.93;3.73;;;16.60;99.90;;;;;;6336766;27;20315;-54
2022/04/25 16:01:04;;;;;;;4.63;4.23;;;16.50;99.90;;;;;;6337305;27;20248;-57
2022/04/25 16:04:07;;;;;;;4.40;4.10;;;16.40;99.90;;;;;;6330703;27;20649;-54
2022/04/25 16:07:22;;;;;;;3.70;3.50;;;16.30;99.90;;;;;;6335366;27;20325;-56
2022/04/25 16:10:26;;;;;;;3.90;3.70;;;16.30;99.90;;;;;;6326996;27;20227;-53
2022/04/25 16:13:29;;;;;;;3.77;3.57;;;16.30;99.90;;;;;;6328638;27;20221;-54
2022/04/25 16:16:32;;;;;;;4.10;3.80;;;16.20;99.90;;;;;;6312242;28;20311;-51
2022/04/25 16:19:35;;;;;;;4.37;4.00;;;16.10;99.90;;;;;;6302559;28;20679;-55
2022/04/25 16:22:38;;;;;;;4.00;3.80;;;15.80;99.90;;;;;;6291157;27;20242;-54
2022/04/25 16:25:42;;;;;;;3.80;3.60;;;15.70;99.90;;;;;;6332660;27;20624;-54
2022/04/25 16:28:47;;;;;;;3.57;3.47;;;15.60;99.90;;;;;;6330178;27;20318;-55
2022/04/25 16:31:53;;;;;;;6.27;3.83;;;15.60;99.90;;;;;;6305319;28;20336;-55
2022/04/25 16:34:56;;;;;;;4.10;3.90;;;15.40;99.90;;;;;;6309024;28;20654;-55
2022/04/25 16:37:59;;;;;;;4.37;4.07;;;15.40;99.90;;;;;;6306192;28;20285;-54
2022/04/25 16:41:03;;;;;;;4.90;4.63;;;15.30;99.90;;;;;;6304825;28;20262;-54
2022/04/25 16:44:06;;;;;;;3.57;3.47;;;15.20;99.90;;;;;;6309458;28;20324;-55
2022/04/25 16:47:12;;;;;;;4.00;3.70;;;15.30;99.90;;;;;;6308154;28;20233;-55
2022/04/25 16:50:15;;;;;;;3.87;3.70;;;15.20;99.90;;;;;;6310352;27;20236;-54
2022/04/25 16:53:22;;;;;;;4.50;4.20;;;15.10;99.90;;;;;;6309820;28;20236;-55
2022/04/25 16:56:26;;;;;;;4.43;4.30;;;15.00;99.90;;;;;;6294648;28;20651;-55
2022/04/25 16:59:30;;;;;;;4.57;4.27;;;14.90;99.90;;;;;;6306795;28;20248;-55